Time;durP1;ratioP1;P1;durP2;ratioP2;P2;SDS_P1;SDS_P2;PMS_P1;PMS_P2;Temp;Humidity;BMP_temperature;BMP_pressure;BME280_temperature;BME280_humidity;BME280_pressure;Samples;Min_cycle;Max_cycle;Signal;HPM_P1;HPM_P2
2022/07/10 00:01:26;;;;;;;2.83;0.85;;;;;;;;;;5022904;28;20029;-73
2022/07/10 00:03:52;;;;;;;3.15;0.90;;;;;;;;;;5020966;28;20101;-71
2022/07/10 00:06:17;;;;;;;3.85;1.00;;;;;;;;;;5026282;28;20056;-73
2022/07/10 00:08:42;;;;;;;1.70;0.82;;;;;;;;;;5021423;28;20029;-72
2022/07/10 00:11:09;;;;;;;3.97;1.17;;;;;;;;;;5022237;28;20049;-74
2022/07/10 00:13:35;;;;;;;3.40;1.20;;;;;;;;;;5023060;28;20441;-74
2022/07/10 00:16:01;;;;;;;4.22;1.10;;;;;;;;;;5020612;28;20571;-73
2022/07/10 00:18:27;;;;;;;2.17;0.88;;;;;;;;;;5021588;28;20096;-72
2022/07/10 00:20:53;;;;;;;5.07;1.55;;;;;;;;;;5018789;28;20417;-72
2022/07/10 00:23:18;;;;;;;4.18;1.30;;;;;;;;;;5024550;28;20028;-72
2022/07/10 00:25:44;;;;;;;2.15;1.05;;;;;;;;;;5026526;28;20474;-72
2022/07/10 00:28:09;;;;;;;2.53;1.10;;;;;;;;;;5018225;28;20095;-72
2022/07/10 00:30:34;;;;;;;4.18;1.20;;;;;;;;;;5010751;28;20156;-73
2022/07/10 00:33:00;;;;;;;4.00;1.20;;;;;;;;;;5032093;28;20540;-73
2022/07/10 00:35:25;;;;;;;4.20;1.10;;;;;;;;;;5018835;28;20029;-74
2022/07/10 00:37:51;;;;;;;3.58;0.95;;;;;;;;;;5018073;28;20018;-72
2022/07/10 00:40:16;;;;;;;3.45;1.10;;;;;;;;;;5017920;28;20029;-72
2022/07/10 00:42:41;;;;;;;3.05;1.20;;;;;;;;;;5018873;28;20033;-73
2022/07/10 00:45:07;;;;;;;2.67;0.93;;;;;;;;;;5025581;28;20083;-75
2022/07/10 00:47:33;;;;;;;3.20;1.10;;;;;;;;;;5024545;28;20075;-72
2022/07/10 00:49:58;;;;;;;3.72;1.20;;;;;;;;;;5022529;28;20440;-72
2022/07/10 00:52:24;;;;;;;3.90;1.25;;;;;;;;;;5022316;28;20531;-72
2022/07/10 00:54:53;;;;;;;3.83;1.42;;;;;;;;;;5023962;28;20032;-74
2022/07/10 00:57:20;;;;;;;2.75;0.88;;;;;;;;;;5018360;28;20495;-72
2022/07/10 00:59:46;;;;;;;3.45;1.10;;;;;;;;;;5017812;28;20029;-72
2022/07/10 01:02:12;;;;;;;3.63;1.17;;;;;;;;;;5019310;28;20032;-73
2022/07/10 01:04:38;;;;;;;2.92;1.00;;;;;;;;;;5019446;28;20068;-72
2022/07/10 01:07:03;;;;;;;3.15;1.20;;;;;;;;;;5017417;28;20466;-73
2022/07/10 01:09:29;;;;;;;3.22;1.10;;;;;;;;;;5019894;28;20037;-73
2022/07/10 01:11:56;;;;;;;4.28;1.10;;;;;;;;;;5020102;28;20528;-73
2022/07/10 01:14:22;;;;;;;2.97;1.10;;;;;;;;;;5017341;28;20401;-72
2022/07/10 01:16:48;;;;;;;2.78;1.13;;;;;;;;;;5024184;28;20037;-72
2022/07/10 01:19:13;;;;;;;3.55;1.27;;;;;;;;;;5027286;28;20034;-74
2022/07/10 01:21:38;;;;;;;4.40;1.23;;;;;;;;;;5022089;28;20037;-72
2022/07/10 01:24:06;;;;;;;3.50;1.20;;;;;;;;;;5023314;28;20392;-73
2022/07/10 01:26:33;;;;;;;4.25;1.20;;;;;;;;;;5024960;28;20091;-72
2022/07/10 01:29:00;;;;;;;3.42;1.20;;;;;;;;;;5024290;28;20038;-73
2022/07/10 01:31:27;;;;;;;2.97;1.35;;;;;;;;;;5028158;28;20041;-72
2022/07/10 01:33:54;;;;;;;3.72;1.17;;;;;;;;;;5022310;28;20397;-73
2022/07/10 01:36:20;;;;;;;2.72;1.27;;;;;;;;;;5027148;28;20188;-73
2022/07/10 01:38:46;;;;;;;3.72;1.40;;;;;;;;;;5011618;28;20022;-72
2022/07/10 01:41:12;;;;;;;3.58;1.30;;;;;;;;;;5024156;28;20028;-73
2022/07/10 01:43:42;;;;;;;5.15;1.55;;;;;;;;;;5026100;28;20057;-72
2022/07/10 01:46:08;;;;;;;3.58;1.20;;;;;;;;;;5024421;28;20029;-72
2022/07/10 01:48:33;;;;;;;5.25;1.85;;;;;;;;;;5019010;28;20746;-72
2022/07/10 01:50:58;;;;;;;3.58;1.17;;;;;;;;;;5027673;28;20053;-72
2022/07/10 01:53:24;;;;;;;5.05;1.40;;;;;;;;;;5018167;28;20049;-72
2022/07/10 01:55:49;;;;;;;4.05;1.48;;;;;;;;;;5024198;28;20500;-72
2022/07/10 01:58:15;;;;;;;2.47;1.27;;;;;;;;;;5036711;28;20030;-73
2022/07/10 02:00:40;;;;;;;2.92;1.17;;;;;;;;;;5028248;28;20036;-72
2022/07/10 02:05:50;;;;;;;3.70;1.23;;;;;;;;;;5026975;28;20044;-73
2022/07/10 02:08:15;;;;;;;2.25;1.30;;;;;;;;;;5018331;28;20029;-73
2022/07/10 02:10:41;;;;;;;2.45;1.27;;;;;;;;;;5023562;28;20029;-73
2022/07/10 02:13:06;;;;;;;3.25;1.50;;;;;;;;;;5022142;28;20170;-73
2022/07/10 02:15:32;;;;;;;4.88;1.48;;;;;;;;;;5024412;28;20106;-72
2022/07/10 02:17:57;;;;;;;2.67;1.50;;;;;;;;;;5022102;28;20393;-73
2022/07/10 02:20:22;;;;;;;3.38;1.50;;;;;;;;;;5021573;28;20029;-73
2022/07/10 02:22:48;;;;;;;2.80;1.40;;;;;;;;;;5023836;28;20025;-72
2022/07/10 02:25:13;;;;;;;2.75;1.40;;;;;;;;;;5021048;28;20163;-72
2022/07/10 02:27:39;;;;;;;2.70;1.35;;;;;;;;;;5019662;28;20021;-74
2022/07/10 02:30:05;;;;;;;2.88;1.33;;;;;;;;;;5021324;28;20129;-73
2022/07/10 02:32:30;;;;;;;5.07;1.50;;;;;;;;;;5028409;28;20034;-72
2022/07/10 02:34:55;;;;;;;2.35;1.35;;;;;;;;;;5021282;28;20033;-74
2022/07/10 02:37:21;;;;;;;2.70;1.30;;;;;;;;;;5027187;28;20083;-74
2022/07/10 02:39:46;;;;;;;3.40;1.45;;;;;;;;;;5027998;28;20385;-73
2022/07/10 02:42:11;;;;;;;4.63;1.60;;;;;;;;;;5022756;28;20029;-74
2022/07/10 02:44:37;;;;;;;3.00;1.33;;;;;;;;;;5026982;28;20108;-73
2022/07/10 02:47:02;;;;;;;3.17;1.30;;;;;;;;;;5020064;28;20284;-73
2022/07/10 02:49:28;;;;;;;4.60;1.85;;;;;;;;;;5021485;28;20500;-73
2022/07/10 02:51:53;;;;;;;3.35;1.40;;;;;;;;;;5023267;28;20037;-73
2022/07/10 02:54:18;;;;;;;2.75;1.30;;;;;;;;;;5025034;28;20060;-72
2022/07/10 02:56:44;;;;;;;2.30;1.30;;;;;;;;;;5018597;28;20034;-72
2022/07/10 02:59:09;;;;;;;2.30;1.30;;;;;;;;;;5025563;28;20482;-72
2022/07/10 03:01:35;;;;;;;4.05;1.75;;;;;;;;;;5024000;28;20113;-72
2022/07/10 03:04:01;;;;;;;3.33;1.33;;;;;;;;;;5018990;28;20080;-74
2022/07/10 03:06:27;;;;;;;3.58;1.83;;;;;;;;;;5044448;28;20057;-73
2022/07/10 03:08:52;;;;;;;4.07;1.30;;;;;;;;;;5027905;28;20489;-73
2022/07/10 03:11:17;;;;;;;3.78;1.30;;;;;;;;;;5020919;28;20497;-73
2022/07/10 03:13:43;;;;;;;2.40;1.30;;;;;;;;;;5021880;28;20029;-72
2022/07/10 03:16:08;;;;;;;3.40;1.50;;;;;;;;;;5023210;28;20021;-72
2022/07/10 03:18:33;;;;;;;3.35;1.40;;;;;;;;;;5018649;28;20040;-72
2022/07/10 03:20:59;;;;;;;3.17;1.40;;;;;;;;;;5025948;28;20474;-73
2022/07/10 03:23:25;;;;;;;3.95;1.83;;;;;;;;;;5025000;28;20061;-72
2022/07/10 03:25:51;;;;;;;3.25;1.80;;;;;;;;;;5017711;28;20025;-72
2022/07/10 03:28:16;;;;;;;4.93;1.40;;;;;;;;;;5024911;28;20450;-72
2022/07/10 03:30:41;;;;;;;3.63;1.23;;;;;;;;;;5024090;28;20037;-74
2022/07/10 03:33:07;;;;;;;4.53;1.30;;;;;;;;;;5013564;28;20045;-72
2022/07/10 03:35:33;;;;;;;4.60;1.73;;;;;;;;;;5020138;28;20648;-74
2022/07/10 03:37:58;;;;;;;2.72;1.33;;;;;;;;;;5021460;28;20052;-74
2022/07/10 03:40:24;;;;;;;3.28;1.30;;;;;;;;;;5020201;28;20061;-73
2022/07/10 03:42:49;;;;;;;2.72;1.23;;;;;;;;;;5023284;28;20075;-73
2022/07/10 03:45:15;;;;;;;3.78;1.40;;;;;;;;;;5021565;28;20033;-73
2022/07/10 03:47:40;;;;;;;3.10;1.10;;;;;;;;;;5024298;28;20033;-73
2022/07/10 03:50:06;;;;;;;2.47;0.98;;;;;;;;;;5027032;28;20041;-73
2022/07/10 03:52:31;;;;;;;2.95;1.30;;;;;;;;;;5022671;28;20539;-73
2022/07/10 03:54:56;;;;;;;2.30;0.90;;;;;;;;;;5026038;28;20462;-72
2022/07/10 04:00:07;;;;;;;4.05;1.23;;;;;;;;;;5023649;28;20339;-73
2022/07/10 04:02:32;;;;;;;4.85;1.50;;;;;;;;;;5023245;28;20021;-73
2022/07/10 04:04:57;;;;;;;4.78;1.30;;;;;;;;;;5018545;28;20036;-73
2022/07/10 04:07:23;;;;;;;2.85;1.08;;;;;;;;;;5016860;28;20079;-72
2022/07/10 04:09:48;;;;;;;4.78;1.40;;;;;;;;;;5022286;28;20041;-74
2022/07/10 04:12:13;;;;;;;4.78;1.05;;;;;;;;;;5022849;28;21387;-72
2022/07/10 04:14:39;;;;;;;6.57;1.48;;;;;;;;;;5016973;28;20065;-73
2022/07/10 04:17:04;;;;;;;4.72;1.17;;;;;;;;;;5019751;28;20025;-73
2022/07/10 04:19:29;;;;;;;2.92;1.30;;;;;;;;;;5027308;28;20112;-73
2022/07/10 04:21:55;;;;;;;8.00;1.50;;;;;;;;;;5017925;28;20075;-73
2022/07/10 04:24:20;;;;;;;5.20;1.70;;;;;;;;;;5025743;28;20029;-73
2022/07/10 04:26:46;;;;;;;3.35;1.13;;;;;;;;;;5020791;28;20474;-73
2022/07/10 04:29:11;;;;;;;3.60;0.90;;;;;;;;;;5023731;28;20402;-72
2022/07/10 04:31:36;;;;;;;3.50;1.20;;;;;;;;;;5020951;28;20493;-72
2022/07/10 04:34:02;;;;;;;4.30;1.15;;;;;;;;;;5016111;28;20676;-73
2022/07/10 04:36:28;;;;;;;2.60;0.98;;;;;;;;;;5021671;28;20029;-73
2022/07/10 04:38:53;;;;;;;5.30;1.20;;;;;;;;;;5018119;28;20485;-73
2022/07/10 04:41:19;;;;;;;4.72;1.27;;;;;;;;;;5019450;28;20588;-72
2022/07/10 04:43:45;;;;;;;2.88;1.20;;;;;;;;;;5022897;28;20037;-72
2022/07/10 04:46:10;;;;;;;2.10;1.00;;;;;;;;;;5023796;28;20540;-74
2022/07/10 04:48:35;;;;;;;2.47;1.00;;;;;;;;;;5022549;28;20025;-73
2022/07/10 04:51:01;;;;;;;4.07;1.17;;;;;;;;;;5023116;28;20060;-74
2022/07/10 04:53:26;;;;;;;1.73;1.00;;;;;;;;;;5018875;28;20037;-73
2022/07/10 04:55:51;;;;;;;2.72;1.05;;;;;;;;;;5025217;28;20469;-73
2022/07/10 04:58:17;;;;;;;4.38;1.17;;;;;;;;;;5018053;28;21448;-72
2022/07/10 05:00:42;;;;;;;3.58;1.10;;;;;;;;;;5014971;28;21724;-73
2022/07/10 05:03:07;;;;;;;4.22;1.10;;;;;;;;;;5017378;28;20033;-73
2022/07/10 05:05:33;;;;;;;2.60;1.10;;;;;;;;;;5010300;28;20602;-73
2022/07/10 05:07:58;;;;;;;2.08;0.85;;;;;;;;;;5004650;28;20082;-72
2022/07/10 05:10:24;;;;;;;7.55;1.30;;;;;;;;;;5016984;28;20038;-72
2022/07/10 05:12:49;;;;;;;4.18;1.10;;;;;;;;;;5018983;28;20599;-73
2022/07/10 05:15:15;;;;;;;3.85;1.17;;;;;;;;;;5015918;28;20029;-73
2022/07/10 05:17:40;;;;;;;5.65;1.17;;;;;;;;;;5019308;28;20053;-73
2022/07/10 05:20:06;;;;;;;2.78;1.13;;;;;;;;;;5023935;28;20052;-72
2022/07/10 05:22:32;;;;;;;4.28;1.23;;;;;;;;;;5024199;28;20021;-73
2022/07/10 05:24:57;;;;;;;3.63;1.02;;;;;;;;;;5031479;28;20528;-72
2022/07/10 05:27:22;;;;;;;3.67;1.23;;;;;;;;;;5020845;28;20603;-74
2022/07/10 05:29:48;;;;;;;5.35;1.05;;;;;;;;;;5022232;28;20033;-72
2022/07/10 05:32:13;;;;;;;6.35;1.35;;;;;;;;;;5015595;28;20068;-73
2022/07/10 05:34:39;;;;;;;5.00;1.10;;;;;;;;;;5017492;28;20397;-73
2022/07/10 05:37:05;;;;;;;6.10;1.30;;;;;;;;;;5016808;28;20036;-73
2022/07/10 05:39:30;;;;;;;2.67;1.02;;;;;;;;;;5023363;28;20025;-72
2022/07/10 05:41:57;;;;;;;4.38;1.20;;;;;;;;;;5024052;28;20060;-72
2022/07/10 05:44:23;;;;;;;3.88;1.15;;;;;;;;;;5027451;28;20029;-72
2022/07/10 05:46:48;;;;;;;3.72;1.13;;;;;;;;;;5026351;28;20101;-74
2022/07/10 05:49:14;;;;;;;4.07;1.38;;;;;;;;;;5015213;28;20038;-73
2022/07/10 05:51:39;;;;;;;3.42;0.77;;;;;;;;;;5022864;28;20063;-72
2022/07/10 05:54:05;;;;;;;4.22;1.02;;;;;;;;;;5027283;28;20028;-72
2022/07/10 05:56:30;;;;;;;2.95;1.00;;;;;;;;;;5026893;28;20036;-72
2022/07/10 05:58:56;;;;;;;4.13;1.10;;;;;;;;;;5016591;28;20104;-72
2022/07/10 06:01:22;;;;;;;3.75;1.00;;;;;;;;;;5016413;28;20033;-72
2022/07/10 06:03:48;;;;;;;5.03;1.00;;;;;;;;;;5028891;28;20076;-73
2022/07/10 06:06:15;;;;;;;3.10;0.95;;;;;;;;;;5019934;28;20033;-74
2022/07/10 06:08:41;;;;;;;3.42;1.10;;;;;;;;;;5021906;28;20022;-74
2022/07/10 06:11:06;;;;;;;3.83;1.40;;;;;;;;;;5021373;28;20090;-73
2022/07/10 06:13:31;;;;;;;4.30;1.13;;;;;;;;;;5029967;28;20064;-72
2022/07/10 06:15:57;;;;;;;4.55;1.10;;;;;;;;;;5026206;28;20053;-73
2022/07/10 06:18:22;;;;;;;4.38;1.42;;;;;;;;;;5028476;28;20061;-72
2022/07/10 06:20:48;;;;;;;2.75;0.73;;;;;;;;;;5022580;28;20458;-73
2022/07/10 06:23:13;;;;;;;3.95;1.10;;;;;;;;;;5026366;28;20464;-72
2022/07/10 06:25:38;;;;;;;3.95;0.93;;;;;;;;;;5025173;28;20029;-72
2022/07/10 06:28:04;;;;;;;3.92;1.00;;;;;;;;;;5028176;28;20033;-74
2022/07/10 06:30:29;;;;;;;3.85;0.95;;;;;;;;;;5020217;28;20517;-72
2022/07/10 06:32:54;;;;;;;4.57;1.02;;;;;;;;;;5031288;28;20065;-74
2022/07/10 06:35:20;;;;;;;4.28;1.20;;;;;;;;;;5019343;28;20096;-73
2022/07/10 06:37:45;;;;;;;4.32;1.13;;;;;;;;;;5027433;28;20033;-73
2022/07/10 06:40:14;;;;;;;4.22;1.08;;;;;;;;;;5019503;28;20120;-74
2022/07/10 06:42:40;;;;;;;3.47;1.00;;;;;;;;;;5024364;28;20390;-74
2022/07/10 06:45:06;;;;;;;5.03;0.98;;;;;;;;;;5026405;28;20029;-73
2022/07/10 06:50:16;;;;;;;3.47;0.90;;;;;;;;;;5018953;28;20037;-73
2022/07/10 06:52:41;;;;;;;5.60;1.02;;;;;;;;;;5019930;28;20497;-72
2022/07/10 06:55:07;;;;;;;3.70;1.10;;;;;;;;;;5017451;28;20057;-72
2022/07/10 06:57:33;;;;;;;4.78;0.90;;;;;;;;;;5024148;28;20038;-73
2022/07/10 06:59:58;;;;;;;3.50;0.95;;;;;;;;;;5028725;28;20551;-72
2022/07/10 07:02:23;;;;;;;6.22;1.10;;;;;;;;;;5023166;28;20041;-73
2022/07/10 07:04:49;;;;;;;2.17;0.90;;;;;;;;;;5022726;28;20048;-72
2022/07/10 07:07:15;;;;;;;3.33;1.15;;;;;;;;;;5024383;28;20037;-73
2022/07/10 07:09:42;;;;;;;7.50;1.50;;;;;;;;;;5024006;28;20120;-72
2022/07/10 07:12:08;;;;;;;4.75;1.00;;;;;;;;;;5020428;28;20532;-74
2022/07/10 07:14:37;;;;;;;3.20;0.98;;;;;;;;;;5025343;28;20116;-72
2022/07/10 07:17:06;;;;;;;4.10;1.33;;;;;;;;;;5021073;28;20031;-73
2022/07/10 07:23:09;;;;;;;5.20;1.33;;;;;;;;;;5019334;28;20026;-71
2022/07/10 07:25:03;;;;;;;5.28;1.52;;;;;;;;;;5019880;28;20029;-73
2022/07/10 07:27:29;;;;;;;4.28;1.10;;;;;;;;;;5023309;28;20026;-73
2022/07/10 07:29:54;;;;;;;4.50;1.10;;;;;;;;;;5022020;28;20029;-72
2022/07/10 07:32:20;;;;;;;4.15;1.00;;;;;;;;;;5022892;28;20470;-72
2022/07/10 07:34:45;;;;;;;4.97;1.20;;;;;;;;;;5018254;28;20053;-73
2022/07/10 07:37:10;;;;;;;2.72;1.00;;;;;;;;;;5028027;28;20030;-72
2022/07/10 07:39:36;;;;;;;4.50;1.33;;;;;;;;;;5018386;28;20034;-74
2022/07/10 07:42:02;;;;;;;4.95;1.48;;;;;;;;;;5019052;28;20039;-73
2022/07/10 07:44:28;;;;;;;6.00;1.20;;;;;;;;;;5016751;28;20120;-73
2022/07/10 07:46:55;;;;;;;5.03;1.17;;;;;;;;;;5014327;28;20595;-73
2022/07/10 07:49:20;;;;;;;3.95;1.08;;;;;;;;;;5021752;28;20041;-73
2022/07/10 07:51:47;;;;;;;3.58;1.10;;;;;;;;;;5017954;28;20528;-73
2022/07/10 07:54:12;;;;;;;5.85;1.50;;;;;;;;;;5015950;28;20441;-74
2022/07/10 07:56:38;;;;;;;4.88;1.73;;;;;;;;;;5010725;28;20036;-73
2022/07/10 07:59:03;;;;;;;5.10;1.30;;;;;;;;;;5020752;28;20096;-75
2022/07/10 08:01:28;;;;;;;4.55;1.50;;;;;;;;;;5015756;28;20055;-75
2022/07/10 08:03:55;;;;;;;4.55;1.48;;;;;;;;;;5017738;28;20039;-75
2022/07/10 08:06:20;;;;;;;4.40;1.60;;;;;;;;;;5020653;28;20029;-73
2022/07/10 08:08:46;;;;;;;3.45;1.42;;;;;;;;;;5016828;28;20358;-73
2022/07/10 08:11:11;;;;;;;7.18;1.83;;;;;;;;;;5018611;28;20103;-75
2022/07/10 08:13:36;;;;;;;4.63;1.55;;;;;;;;;;5016888;28;20032;-73
2022/07/10 08:16:02;;;;;;;5.38;1.58;;;;;;;;;;5019022;28;20396;-74
2022/07/10 08:18:27;;;;;;;5.18;1.73;;;;;;;;;;5019336;28;20415;-73
2022/07/10 08:20:53;;;;;;;3.97;1.45;;;;;;;;;;5021026;28;20033;-73
2022/07/10 08:23:18;;;;;;;6.05;1.70;;;;;;;;;;5019804;28;20037;-73
2022/07/10 08:25:43;;;;;;;5.45;1.50;;;;;;;;;;5014899;28;20048;-73
2022/07/10 08:28:11;;;;;;;4.03;1.40;;;;;;;;;;5010478;28;20057;-73
2022/07/10 08:30:37;;;;;;;4.18;1.65;;;;;;;;;;5010947;28;20046;-74
2022/07/10 08:33:03;;;;;;;4.75;1.58;;;;;;;;;;5018509;28;20402;-74
2022/07/10 08:35:28;;;;;;;4.93;1.90;;;;;;;;;;5018034;28;20022;-73
2022/07/10 08:37:54;;;;;;;4.85;1.65;;;;;;;;;;5011326;28;20029;-73
2022/07/10 08:40:21;;;;;;;5.75;1.75;;;;;;;;;;5020780;28;20451;-73
2022/07/10 08:42:47;;;;;;;4.03;1.60;;;;;;;;;;5017967;28;20134;-74
2022/07/10 08:45:13;;;;;;;5.50;1.40;;;;;;;;;;5014902;28;21035;-73
2022/07/10 08:47:41;;;;;;;2.63;1.50;;;;;;;;;;5009267;28;20030;-74
2022/07/10 08:50:28;;;;;;;3.80;1.50;;;;;;;;;;5019555;28;20048;-74
2022/07/10 08:53:00;;;;;;;2.55;1.40;;;;;;;;;;5018012;28;20040;-73
2022/07/10 08:55:26;;;;;;;3.83;1.43;;;;;;;;;;5023837;28;20067;-75
2022/07/10 08:57:52;;;;;;;3.33;1.50;;;;;;;;;;5022773;28;20720;-75
2022/07/10 09:00:17;;;;;;;4.03;1.35;;;;;;;;;;5015793;28;20034;-73
2022/07/10 09:02:43;;;;;;;4.63;1.65;;;;;;;;;;5020880;28;20025;-73
2022/07/10 09:05:08;;;;;;;2.97;1.33;;;;;;;;;;5026837;28;20687;-74
2022/07/10 09:07:38;;;;;;;3.25;1.80;;;;;;;;;;5010978;28;20030;-74
2022/07/10 09:10:08;;;;;;;5.20;1.55;;;;;;;;;;5014083;28;20116;-73
2022/07/10 09:12:54;;;;;;;4.68;1.35;;;;;;;;;;5010312;28;20030;-74
2022/07/10 09:15:24;;;;;;;3.97;1.42;;;;;;;;;;5021303;28;20045;-73
2022/07/10 09:17:55;;;;;;;5.03;1.60;;;;;;;;;;5014512;28;20471;-73
2022/07/10 09:20:32;;;;;;;3.63;1.70;;;;;;;;;;5021222;28;20052;-74
2022/07/10 09:22:59;;;;;;;3.38;1.70;;;;;;;;;;5011087;28;20440;-73
2022/07/10 09:25:34;;;;;;;3.90;1.80;;;;;;;;;;5017313;28;20151;-75
2022/07/10 09:28:05;;;;;;;3.90;1.90;;;;;;;;;;4998701;28;20091;-74
2022/07/10 09:30:38;;;;;;;5.90;2.53;;;;;;;;;;5001007;28;20053;-74
2022/07/10 09:33:25;;;;;;;5.10;2.10;;;;;;;;;;5009778;28;20030;-73
2022/07/10 09:36:10;;;;;;;3.63;1.90;;;;;;;;;;5010780;28;20120;-73
2022/07/10 09:38:54;;;;;;;3.88;1.90;;;;;;;;;;5013554;28;20029;-73
2022/07/10 09:41:31;;;;;;;3.28;1.98;;;;;;;;;;5016410;28;20494;-73
2022/07/10 09:43:59;;;;;;;3.75;1.80;;;;;;;;;;5013902;28;20037;-73
2022/07/10 09:46:26;;;;;;;5.57;1.70;;;;;;;;;;5015706;28;20038;-73
2022/07/10 09:49:10;;;;;;;4.28;1.58;;;;;;;;;;5010904;28;20040;-74
2022/07/10 09:51:44;;;;;;;3.95;1.50;;;;;;;;;;5011603;28;20128;-74
2022/07/10 09:54:10;;;;;;;4.18;1.55;;;;;;;;;;5023271;28;20512;-74
2022/07/10 09:56:47;;;;;;;3.42;1.50;;;;;;;;;;5016811;28;20618;-73
2022/07/10 09:59:16;;;;;;;3.78;1.30;;;;;;;;;;5024143;28;20114;-73
2022/07/10 10:01:47;;;;;;;2.70;1.40;;;;;;;;;;5020330;28;20029;-75
2022/07/10 10:04:14;;;;;;;3.33;1.40;;;;;;;;;;5018583;28;20029;-73
2022/07/10 10:06:40;;;;;;;3.78;1.50;;;;;;;;;;5024802;28;20052;-74
2022/07/10 10:09:12;;;;;;;3.40;1.50;;;;;;;;;;5018055;28;20037;-73
2022/07/10 10:11:39;;;;;;;4.03;1.58;;;;;;;;;;5015990;28;20033;-74
2022/07/10 10:14:07;;;;;;;5.22;1.65;;;;;;;;;;5022530;28;20045;-73
2022/07/10 10:16:33;;;;;;;4.35;2.30;;;;;;;;;;5024978;28;20037;-73
2022/07/10 10:21:44;;;;;;;3.70;1.50;;;;;;;;;;5025048;28;20028;-73
2022/07/10 10:24:10;;;;;;;3.00;1.50;;;;;;;;;;5019512;28;20037;-74
2022/07/10 10:26:35;;;;;;;3.92;1.60;;;;;;;;;;5017714;28;20131;-74
2022/07/10 10:29:04;;;;;;;3.30;1.60;;;;;;;;;;5018450;28;20026;-75
2022/07/10 10:31:31;;;;;;;4.18;1.48;;;;;;;;;;5020073;28;20085;-73
2022/07/10 10:33:57;;;;;;;4.03;1.75;;;;;;;;;;5025558;28;20033;-74
2022/07/10 10:36:47;;;;;;;3.42;1.80;;;;;;;;;;5018932;28;20041;-74
2022/07/10 10:39:18;;;;;;;2.97;1.52;;;;;;;;;;5009314;28;20052;-74
2022/07/10 10:41:52;;;;;;;3.65;1.50;;;;;;;;;;5017628;28;20052;-73
2022/07/10 10:44:17;;;;;;;3.17;1.50;;;;;;;;;;5014579;28;20029;-73
2022/07/10 10:47:06;;;;;;;2.63;1.35;;;;;;;;;;5013142;28;20437;-73
2022/07/10 10:49:49;;;;;;;2.08;1.38;;;;;;;;;;5018091;28;20022;-73
2022/07/10 10:52:15;;;;;;;4.00;1.67;;;;;;;;;;5017697;28;20035;-74
2022/07/10 10:54:56;;;;;;;2.97;1.50;;;;;;;;;;5025530;28;20048;-74
2022/07/10 10:57:23;;;;;;;2.60;1.50;;;;;;;;;;5026205;28;20030;-73
2022/07/10 10:59:56;;;;;;;3.35;1.80;;;;;;;;;;5021662;28;20044;-73
2022/07/10 11:02:25;;;;;;;2.95;1.55;;;;;;;;;;5021875;28;20746;-74
2022/07/10 11:04:50;;;;;;;2.28;1.60;;;;;;;;;;5016734;28;20037;-74
2022/07/10 11:07:53;;;;;;;2.83;1.60;;;;;;;;;;5018634;28;20049;-74
2022/07/10 11:10:32;;;;;;;2.60;1.45;;;;;;;;;;5016366;28;20052;-74
2022/07/10 11:13:02;;;;;;;3.22;1.60;;;;;;;;;;5016990;28;20033;-73
2022/07/10 11:15:35;;;;;;;3.58;1.38;;;;;;;;;;5020268;28;20033;-74
2022/07/10 11:18:13;;;;;;;3.03;1.40;;;;;;;;;;5019386;28;20033;-72
2022/07/10 11:20:45;;;;;;;2.65;1.50;;;;;;;;;;5027245;28;20124;-71
2022/07/10 11:23:35;;;;;;;5.80;1.50;;;;;;;;;;5019337;28;20481;-72
2022/07/10 11:26:08;;;;;;;3.33;1.60;;;;;;;;;;5012808;28;20052;-72
2022/07/10 11:28:52;;;;;;;4.60;1.50;;;;;;;;;;5015281;28;20029;-72
2022/07/10 11:31:19;;;;;;;2.47;1.40;;;;;;;;;;5012501;28;20668;-72
2022/07/10 11:33:48;;;;;;;2.80;1.40;;;;;;;;;;5015810;28;20041;-72
2022/07/10 11:36:28;;;;;;;3.72;1.70;;;;;;;;;;5011780;28;20033;-72
2022/07/10 11:39:02;;;;;;;3.20;1.40;;;;;;;;;;5014883;28;20060;-73
2022/07/10 11:41:28;;;;;;;2.47;1.40;;;;;;;;;;5014387;28;20029;-74
2022/07/10 11:44:01;;;;;;;4.88;1.40;;;;;;;;;;5011458;28;20029;-73
2022/07/10 11:46:29;;;;;;;2.95;1.50;;;;;;;;;;5024656;28;20035;-74
2022/07/10 11:48:58;;;;;;;4.38;1.50;;;;;;;;;;5018477;28;20158;-72
2022/07/10 11:51:25;;;;;;;3.38;1.58;;;;;;;;;;5012367;28;20030;-73
2022/07/10 11:54:06;;;;;;;4.18;1.40;;;;;;;;;;5016699;28;20124;-72
2022/07/10 11:56:36;;;;;;;1.58;1.20;;;;;;;;;;5018073;28;20615;-72
2022/07/10 11:59:10;;;;;;;2.33;1.30;;;;;;;;;;5026780;28;20079;-74
2022/07/10 12:01:48;;;;;;;3.15;1.40;;;;;;;;;;5020810;28;20033;-73
2022/07/10 12:04:16;;;;;;;2.92;1.40;;;;;;;;;;5018751;28;20033;-73
2022/07/10 12:06:44;;;;;;;3.72;1.42;;;;;;;;;;5014912;28;20056;-73
2022/07/10 12:09:12;;;;;;;2.83;1.40;;;;;;;;;;5016579;28;20501;-71
2022/07/10 12:11:38;;;;;;;2.25;1.02;;;;;;;;;;5018798;28;20055;-71
2022/07/10 12:14:19;;;;;;;3.60;1.35;;;;;;;;;;5020009;28;20033;-72
2022/07/10 12:16:52;;;;;;;2.13;1.30;;;;;;;;;;5016651;28;20071;-74
2022/07/10 12:19:19;;;;;;;2.95;1.10;;;;;;;;;;5026329;28;20053;-73
2022/07/10 12:21:46;;;;;;;1.88;1.00;;;;;;;;;;5013316;28;20167;-73
2022/07/10 12:24:13;;;;;;;2.38;1.00;;;;;;;;;;5018718;28;20474;-74
2022/07/10 12:26:43;;;;;;;2.63;1.10;;;;;;;;;;5016735;28;20021;-73
2022/07/10 12:29:29;;;;;;;3.50;1.30;;;;;;;;;;5031470;28;20057;-71
2022/07/10 12:31:56;;;;;;;5.97;1.35;;;;;;;;;;5020204;28;20080;-73
2022/07/10 12:34:50;;;;;;;2.65;1.00;;;;;;;;;;5024194;28;20033;-72
2022/07/10 12:37:16;;;;;;;2.78;1.20;;;;;;;;;;5012822;28;20053;-72
2022/07/10 12:39:50;;;;;;;2.95;1.10;;;;;;;;;;5014311;28;20101;-72
2022/07/10 12:42:26;;;;;;;1.85;0.95;;;;;;;;;;5017404;28;20627;-72
2022/07/10 12:44:52;;;;;;;1.92;0.95;;;;;;;;;;5019112;28;20057;-72
2022/07/10 12:47:19;;;;;;;1.98;0.80;;;;;;;;;;5013323;28;20136;-72
2022/07/10 12:49:52;;;;;;;2.33;1.10;;;;;;;;;;5014561;28;20044;-71
2022/07/10 12:52:28;;;;;;;3.20;0.90;;;;;;;;;;5017401;28;20021;-72
2022/07/10 12:55:15;;;;;;;2.53;0.80;;;;;;;;;;5012375;28;20029;-73
2022/07/10 12:57:54;;;;;;;2.65;1.02;;;;;;;;;;5007940;28;20038;-73
2022/07/10 13:00:24;;;;;;;3.35;1.00;;;;;;;;;;5007807;28;21364;-72
2022/07/10 13:03:10;;;;;;;3.08;1.10;;;;;;;;;;5024711;28;20037;-72
2022/07/10 13:05:36;;;;;;;3.45;1.02;;;;;;;;;;5016284;28;20048;-72
2022/07/10 13:08:20;;;;;;;1.73;1.00;;;;;;;;;;5014711;28;20038;-72
2022/07/10 13:10:49;;;;;;;2.47;0.90;;;;;;;;;;5016561;28;20051;-72
2022/07/10 13:13:15;;;;;;;3.03;1.08;;;;;;;;;;5017118;28;20037;-74
2022/07/10 13:15:46;;;;;;;1.92;1.27;;;;;;;;;;5011148;28;20409;-72
2022/07/10 13:18:17;;;;;;;4.60;1.10;;;;;;;;;;5013917;28;20393;-72
2022/07/10 13:20:45;;;;;;;2.45;1.05;;;;;;;;;;5016831;28;20056;-72
2022/07/10 13:23:11;;;;;;;1.92;1.00;;;;;;;;;;5017667;28;20044;-74
2022/07/10 13:25:38;;;;;;;3.15;1.20;;;;;;;;;;5023299;28;20033;-72
2022/07/10 13:28:07;;;;;;;2.42;1.00;;;;;;;;;;5023412;28;20584;-74
2022/07/10 13:30:33;;;;;;;1.30;1.00;;;;;;;;;;5019041;28;20053;-72
2022/07/10 13:32:59;;;;;;;2.92;1.17;;;;;;;;;;5021030;28;20097;-72
2022/07/10 13:35:27;;;;;;;3.33;1.25;;;;;;;;;;5020132;28;20029;-72
2022/07/10 13:37:53;;;;;;;1.73;0.93;;;;;;;;;;5021482;28;20060;-71
2022/07/10 13:40:19;;;;;;;2.47;1.20;;;;;;;;;;5020722;28;20041;-72
2022/07/10 13:42:44;;;;;;;2.88;0.90;;;;;;;;;;5020695;28;20214;-72
2022/07/10 13:45:10;;;;;;;2.08;1.20;;;;;;;;;;5017997;28;20030;-71
2022/07/10 13:47:35;;;;;;;3.28;1.00;;;;;;;;;;5016716;28;20024;-71
2022/07/10 13:50:00;;;;;;;2.03;1.00;;;;;;;;;;5017650;28;20033;-72
2022/07/10 13:52:26;;;;;;;4.22;0.98;;;;;;;;;;5012967;28;20476;-72
2022/07/10 13:54:51;;;;;;;3.15;1.00;;;;;;;;;;5018798;28;20128;-71
2022/07/10 13:57:16;;;;;;;2.38;1.10;;;;;;;;;;5017008;28;20029;-71
2022/07/10 13:59:42;;;;;;;4.00;1.20;;;;;;;;;;5016785;28;21910;-72
2022/07/10 14:02:07;;;;;;;1.90;0.90;;;;;;;;;;5016448;28;20033;-72
2022/07/10 14:04:33;;;;;;;3.17;1.05;;;;;;;;;;5015613;28;20037;-72
2022/07/10 14:06:58;;;;;;;2.15;0.98;;;;;;;;;;5018565;28;20044;-73
2022/07/10 14:09:23;;;;;;;3.65;1.20;;;;;;;;;;5015167;28;20026;-73
2022/07/10 14:11:50;;;;;;;2.72;0.95;;;;;;;;;;5016305;28;20432;-73
2022/07/10 14:14:15;;;;;;;1.98;0.90;;;;;;;;;;5012516;28;20025;-73
2022/07/10 14:16:42;;;;;;;2.40;0.90;;;;;;;;;;5014967;28;20080;-72
2022/07/10 14:19:08;;;;;;;2.05;0.82;;;;;;;;;;5021604;28;20028;-71
2022/07/10 14:21:33;;;;;;;1.90;1.00;;;;;;;;;;5020664;28;20469;-72
2022/07/10 14:23:58;;;;;;;2.15;0.90;;;;;;;;;;5013752;28;20040;-72
2022/07/10 14:26:24;;;;;;;1.25;1.02;;;;;;;;;;5011924;28;20033;-72
2022/07/10 14:28:50;;;;;;;2.97;1.10;;;;;;;;;;5014249;28;20026;-72
2022/07/10 14:31:16;;;;;;;2.30;1.08;;;;;;;;;;5017067;28;20954;-71
2022/07/10 14:33:41;;;;;;;1.52;0.93;;;;;;;;;;5015836;28;20034;-71
2022/07/10 14:36:10;;;;;;;1.67;0.90;;;;;;;;;;5017311;28;20051;-73
2022/07/10 14:38:36;;;;;;;2.67;0.95;;;;;;;;;;5019913;28;20542;-71
2022/07/10 14:41:01;;;;;;;1.58;0.93;;;;;;;;;;5019555;28;20029;-73
2022/07/10 14:43:27;;;;;;;1.98;0.90;;;;;;;;;;5018711;28;20029;-71
2022/07/10 14:45:53;;;;;;;1.65;0.95;;;;;;;;;;5018588;28;20034;-71
2022/07/10 14:48:19;;;;;;;1.90;0.90;;;;;;;;;;5015819;28;20539;-72
2022/07/10 14:50:44;;;;;;;2.42;1.05;;;;;;;;;;5017807;28;20512;-72
2022/07/10 14:53:11;;;;;;;1.48;0.85;;;;;;;;;;5015075;28;20034;-72
2022/07/10 14:55:36;;;;;;;2.45;0.98;;;;;;;;;;5007201;28;20480;-72
2022/07/10 14:58:02;;;;;;;2.33;0.80;;;;;;;;;;5009444;28;20112;-72
2022/07/10 15:00:28;;;;;;;2.60;0.98;;;;;;;;;;5009819;28;20053;-71